createdAt,value
2023-04-01T00:00:04.916Z,29.50
2023-04-01T00:03:57.603Z,28.40
2023-04-01T00:07:25.313Z,30.40
2023-04-01T00:10:58.862Z,27.10
2023-04-01T00:14:26.163Z,34.10
2023-04-01T00:17:53.457Z,27.70
2023-04-01T00:21:21.864Z,24.80
2023-04-01T00:24:49.882Z,29.50
2023-04-01T00:28:17.590Z,25.60
2023-04-01T00:31:44.586Z,27.00
2023-04-01T00:35:13.780Z,30.60
2023-04-01T00:38:44.148Z,35.00
2023-04-01T00:42:13.567Z,37.50
2023-04-01T00:45:42.832Z,34.60
2023-04-01T00:49:17.011Z,37.00
2023-04-01T00:52:45.615Z,32.10
2023-04-01T00:56:18.065Z,36.10
2023-04-01T01:00:01.536Z,32.70
2023-04-01T01:03:30.007Z,31.70
2023-04-01T01:07:06.703Z,30.70
2023-04-01T01:10:37.578Z,31.90
2023-04-01T01:14:15.359Z,29.10
2023-04-01T01:17:55.068Z,26.40
2023-04-01T01:21:57.622Z,25.00
2023-04-01T01:25:43.356Z,21.40
2023-04-01T01:29:20.126Z,20.90
2023-04-01T01:33:09.981Z,21.90
2023-04-01T01:36:40.448Z,24.60
2023-04-01T01:40:14.405Z,25.30
2023-04-01T01:43:46.849Z,28.50
2023-04-01T01:47:17.019Z,20.00
2023-04-01T01:50:48.285Z,19.80
2023-04-01T01:54:20.037Z,19.30
2023-04-01T01:57:48.536Z,17.30
2023-04-01T02:01:24.797Z,19.60
2023-04-01T02:04:55.375Z,19.90
2023-04-01T02:08:27.749Z,17.30
2023-04-01T02:12:01.000Z,17.30
2023-04-01T02:15:34.502Z,13.80
2023-04-01T02:19:08.756Z,22.90
2023-04-01T02:26:11.131Z,18.50
2023-04-01T02:29:38.508Z,21.10
2023-04-01T02:33:08.673Z,14.30
2023-04-01T02:36:37.420Z,18.60
2023-04-01T02:40:07.682Z,17.20
2023-04-01T02:43:36.221Z,17.00
2023-04-01T02:47:03.276Z,18.80
2023-04-01T02:50:30.645Z,18.40
2023-04-01T02:53:58.689Z,22.20
2023-04-01T02:57:25.545Z,17.30
2023-04-01T03:00:52.908Z,15.60
2023-04-01T03:04:20.108Z,18.10
2023-04-01T03:07:46.980Z,21.60
2023-04-01T03:11:15.041Z,18.20
2023-04-01T03:14:43.014Z,17.80
2023-04-01T03:18:10.261Z,19.70
2023-04-01T03:21:37.388Z,16.00
2023-04-01T03:25:05.398Z,16.50
2023-04-01T03:28:32.909Z,16.70
2023-04-01T03:32:00.716Z,14.70
2023-04-01T03:35:28.110Z,18.10
2023-04-01T03:38:54.783Z,16.60
2023-04-01T03:42:24.618Z,18.30
2023-04-01T03:45:52.813Z,17.00
2023-04-01T03:49:20.151Z,16.50
2023-04-01T03:52:47.412Z,18.10
2023-04-01T03:56:14.835Z,14.60
2023-04-01T03:59:42.404Z,15.10
2023-04-01T04:03:10.110Z,19.70
2023-04-01T04:06:37.902Z,21.20
2023-04-01T04:10:05.308Z,17.70
2023-04-01T04:13:32.124Z,20.30
2023-04-01T04:17:01.637Z,25.40
2023-04-01T04:20:28.461Z,22.20
2023-04-01T04:23:56.200Z,21.50
2023-04-01T04:27:24.525Z,26.70
2023-04-01T04:30:57.880Z,24.40
2023-04-01T04:34:25.008Z,25.70
2023-04-01T04:37:51.983Z,26.10
2023-04-01T04:41:20.893Z,27.50
2023-04-01T04:44:49.408Z,29.10
2023-04-01T04:48:19.994Z,26.00
2023-04-01T04:51:47.863Z,25.30
2023-04-01T04:55:16.374Z,25.50
2023-04-01T04:58:45.952Z,24.20
2023-04-01T05:02:16.391Z,26.90
2023-04-01T05:05:50.366Z,26.40
2023-04-01T05:09:17.531Z,28.70
2023-04-01T05:12:44.824Z,32.40
2023-04-01T05:16:19.334Z,30.30
2023-04-01T05:19:46.745Z,30.20
2023-04-01T05:23:14.379Z,31.00
2023-04-01T05:26:41.385Z,31.30
2023-04-01T05:30:10.123Z,34.10
2023-04-01T05:33:57.084Z,31.50
2023-04-01T05:37:24.658Z,30.90
2023-04-01T05:40:52.041Z,29.40
2023-04-01T05:44:19.593Z,24.70
2023-04-01T05:48:07.602Z,21.40
2023-04-01T05:51:38.707Z,21.70
2023-04-01T05:55:06.920Z,18.50
2023-04-01T05:58:33.681Z,21.10
2023-04-01T06:02:01.301Z,21.60
2023-04-01T06:05:32.940Z,18.20
2023-04-01T06:09:05.048Z,23.80
2023-04-01T06:12:46.067Z,32.00
2023-04-01T06:16:23.744Z,25.50
2023-04-01T06:19:59.575Z,21.60
2023-04-01T06:23:49.590Z,19.40
2023-04-01T06:27:28.600Z,13.60
2023-04-01T06:31:01.706Z,15.00
2023-04-01T06:35:01.732Z,13.00
2023-04-01T06:39:03.197Z,17.30
2023-04-01T06:42:51.437Z,11.60
2023-04-01T06:46:48.179Z,12.70
2023-04-01T06:50:45.182Z,11.20
2023-04-01T06:54:40.062Z,14.70
2023-04-01T06:58:13.928Z,13.80
2023-04-01T07:01:46.660Z,18.10
2023-04-01T07:05:17.174Z,15.90
2023-04-01T07:08:47.829Z,16.20
2023-04-01T07:12:24.132Z,17.30
2023-04-01T07:16:21.594Z,16.00
2023-04-01T07:19:51.297Z,16.70
2023-04-01T07:23:24.516Z,20.10
2023-04-01T07:27:23.854Z,17.90
2023-04-01T07:31:05.242Z,20.00
2023-04-01T07:34:38.045Z,17.60
2023-04-01T07:38:17.326Z,18.30
2023-04-01T07:41:53.937Z,21.20
2023-04-01T07:45:27.914Z,15.60
2023-04-01T07:49:03.162Z,13.70
2023-04-01T07:52:38.288Z,15.30
2023-04-01T07:56:17.203Z,11.80
2023-04-01T07:59:56.448Z,14.50
2023-04-01T08:03:59.160Z,16.60
2023-04-01T08:07:33.920Z,18.00
2023-04-01T08:11:43.600Z,19.30
2023-04-01T08:15:38.629Z,19.10
2023-04-01T08:19:26.727Z,14.50
2023-04-01T08:23:02.124Z,15.20
2023-04-01T08:26:42.512Z,11.70
2023-04-01T08:30:22.904Z,11.00
2023-04-01T08:33:52.383Z,10.10
2023-04-01T08:37:23.465Z,10.90
2023-04-01T08:41:04.952Z,14.30
2023-04-01T08:45:17.110Z,14.10
2023-04-01T08:49:22.871Z,9.60
2023-04-01T08:53:01.718Z,12.50
2023-04-01T08:56:34.083Z,6.90
2023-04-01T09:04:16.983Z,7.20
2023-04-01T09:07:55.862Z,7.20
2023-04-01T09:11:45.449Z,7.50
2023-04-01T09:19:14.518Z,6.80
2023-04-01T09:22:57.683Z,6.50
2023-04-01T09:26:40.377Z,6.30
2023-04-01T09:30:36.562Z,6.80
2023-04-01T09:34:27.718Z,5.00
2023-04-01T09:38:14.845Z,4.50
2023-04-01T09:41:59.783Z,7.00
2023-04-01T09:45:48.989Z,8.50
2023-04-01T09:49:40.394Z,5.10
2023-04-01T09:53:22.934Z,4.20
2023-04-01T09:57:20.294Z,3.90
2023-04-01T10:01:29.373Z,9.30
2023-04-01T10:05:22.457Z,4.90
2023-04-01T10:09:34.431Z,5.90
2023-04-01T10:13:44.869Z,5.30
2023-04-01T10:17:56.549Z,6.30
2023-04-01T10:21:47.377Z,5.60
2023-04-01T10:26:00.404Z,8.70
2023-04-01T10:30:07.703Z,8.70
2023-04-01T10:34:03.661Z,4.30
2023-04-01T10:37:57.323Z,4.80
2023-04-01T10:41:53.400Z,5.00
2023-04-01T10:45:56.064Z,4.20
2023-04-01T10:49:49.472Z,5.50
2023-04-01T10:53:42.293Z,5.30
2023-04-01T10:57:53.770Z,5.60
2023-04-01T11:02:22.742Z,5.80
2023-04-01T11:06:38.992Z,8.20
2023-04-01T11:10:42.895Z,5.90
2023-04-01T11:14:42.943Z,5.30
2023-04-01T11:18:42.218Z,6.30
2023-04-01T11:22:33.791Z,5.20
2023-04-01T11:26:19.981Z,4.90
2023-04-01T11:30:32.006Z,4.20
2023-04-01T11:34:05.852Z,5.30
2023-04-01T11:37:47.666Z,3.70
2023-04-01T11:41:44.594Z,3.80
2023-04-01T11:45:41.547Z,4.40
2023-04-01T11:49:28.196Z,3.80
2023-04-01T11:53:17.517Z,3.60
2023-04-01T11:57:00.609Z,5.40
2023-04-01T12:00:54.502Z,4.10
2023-04-01T12:04:39.665Z,4.10
2023-04-01T12:08:17.071Z,5.20
2023-04-01T12:11:55.210Z,6.20
2023-04-01T12:15:29.189Z,4.90
2023-04-01T12:19:00.789Z,5.90
2023-04-01T12:22:38.127Z,4.20
2023-04-01T12:26:36.380Z,5.70
2023-04-01T12:30:36.072Z,4.60
2023-04-01T12:34:27.515Z,3.10
2023-04-01T12:38:09.160Z,3.70
2023-04-01T12:41:49.017Z,3.30
2023-04-01T12:45:32.668Z,3.50
2023-04-01T12:49:22.905Z,4.20
2023-04-01T12:53:04.463Z,2.90
2023-04-01T12:56:41.461Z,5.20
2023-04-01T13:00:26.813Z,2.50
2023-04-01T13:04:14.022Z,2.90
2023-04-01T13:07:55.902Z,3.60
2023-04-01T13:11:37.982Z,4.50
2023-04-01T13:15:29.271Z,4.80
2023-04-01T13:19:04.865Z,3.50
2023-04-01T13:22:38.822Z,2.60
2023-04-01T13:26:16.525Z,2.40
2023-04-01T13:29:47.270Z,5.30
2023-04-01T13:33:29.693Z,4.30
2023-04-01T13:37:10.994Z,4.40
2023-04-01T13:40:59.577Z,3.40
2023-04-01T13:44:38.357Z,4.70
2023-04-01T13:48:29.195Z,3.40
2023-04-01T13:52:06.604Z,3.50
2023-04-01T13:55:52.443Z,4.20
2023-04-01T13:59:58.082Z,3.40
2023-04-01T14:03:40.872Z,3.00
2023-04-01T14:07:25.060Z,3.30
2023-04-01T14:11:02.923Z,4.10
2023-04-01T14:14:44.002Z,4.20
2023-04-01T14:18:36.195Z,5.00
2023-04-01T14:22:16.589Z,4.40
2023-04-01T14:26:10.991Z,3.60
2023-04-01T14:29:50.610Z,5.90
2023-04-01T14:33:36.968Z,6.00
2023-04-01T14:37:20.576Z,5.70
2023-04-01T14:41:03.249Z,7.90
2023-04-01T14:48:33.184Z,6.80
2023-04-01T14:52:12.463Z,7.60
2023-04-01T14:55:52.805Z,5.70
2023-04-01T14:59:31.490Z,7.30
2023-04-01T15:03:05.248Z,6.10
2023-04-01T15:10:23.648Z,6.60
2023-04-01T15:14:22.374Z,5.40
2023-04-01T15:17:59.822Z,6.60
2023-04-01T15:21:51.604Z,8.80
2023-04-01T15:25:36.369Z,8.30
2023-04-01T15:29:35.461Z,16.30
2023-04-01T15:33:28.906Z,13.00
2023-04-01T15:37:04.898Z,7.70
2023-04-01T15:40:41.033Z,5.90
2023-04-01T15:44:29.185Z,5.20
2023-04-01T15:48:07.328Z,5.80
2023-04-01T15:51:58.580Z,5.00
2023-04-01T15:55:35.070Z,4.10
2023-04-01T15:59:24.628Z,5.90
2023-04-01T16:03:13.270Z,4.10
2023-04-01T16:06:55.746Z,4.30
2023-04-01T16:10:34.894Z,6.10
2023-04-01T16:14:15.682Z,5.30
2023-04-01T16:18:05.326Z,5.60
2023-04-01T16:21:48.950Z,5.50
2023-04-01T16:25:33.013Z,4.90
2023-04-01T16:29:10.134Z,5.50
2023-04-01T16:32:47.305Z,4.10
2023-04-01T16:36:29.261Z,5.90
2023-04-01T16:40:17.674Z,6.90
2023-04-01T16:43:56.171Z,4.70
2023-04-01T16:47:30.573Z,6.40
2023-04-01T16:51:01.906Z,8.00
2023-04-01T16:54:39.613Z,6.70
2023-04-01T16:58:12.734Z,8.30
2023-04-01T17:01:52.399Z,8.20
2023-04-01T17:05:19.737Z,3.90
2023-04-01T17:09:05.035Z,5.50
2023-04-01T17:12:47.334Z,9.40
2023-04-01T17:17:05.458Z,10.00
2023-04-01T17:20:50.430Z,9.30
2023-04-01T17:24:39.667Z,4.60
2023-04-01T17:28:24.317Z,2.80
2023-04-01T17:32:08.272Z,3.30
2023-04-01T17:35:42.315Z,3.90
2023-04-01T17:39:33.601Z,4.40
2023-04-01T17:43:13.088Z,7.40
2023-04-01T17:47:03.391Z,4.10
2023-04-01T17:50:55.586Z,6.50
2023-04-01T17:54:30.273Z,10.60
2023-04-01T17:58:08.444Z,6.00
2023-04-01T18:01:59.398Z,5.90
2023-04-01T18:05:36.961Z,5.60
2023-04-01T18:09:10.346Z,4.70
2023-04-01T18:13:04.677Z,4.80
2023-04-01T18:16:53.437Z,6.50
2023-04-01T18:20:43.256Z,5.90
2023-04-01T18:24:21.727Z,5.60
2023-04-01T18:27:54.266Z,5.10
2023-04-01T18:31:27.007Z,6.80
2023-04-01T18:35:04.456Z,6.40
2023-04-01T18:38:40.064Z,8.20
2023-04-01T18:42:19.103Z,5.70
2023-04-01T18:45:54.550Z,6.30
2023-04-01T18:49:33.310Z,8.40
2023-04-01T18:53:14.887Z,8.20
2023-04-01T18:56:47.490Z,10.10
2023-04-01T19:00:23.560Z,7.00
2023-04-01T19:04:03.288Z,7.10
2023-04-01T19:07:48.581Z,7.30
2023-04-01T19:11:33.019Z,10.40
2023-04-01T19:15:31.348Z,9.10
2023-04-01T19:19:23.764Z,9.50
2023-04-01T19:23:16.473Z,10.20
2023-04-01T19:26:50.733Z,9.10
2023-04-01T19:30:51.558Z,9.20
2023-04-01T19:34:38.827Z,10.10
2023-04-01T19:38:15.814Z,12.80
2023-04-01T19:41:55.351Z,10.70
2023-04-01T19:45:39.009Z,9.10
2023-04-01T19:49:38.928Z,10.70
2023-04-01T19:53:26.960Z,10.90
2023-04-01T19:57:04.656Z,9.70
2023-04-01T20:00:39.745Z,13.80
2023-04-01T20:04:11.388Z,10.60
2023-04-01T20:07:46.710Z,13.70
2023-04-01T20:11:37.838Z,12.20
2023-04-01T20:15:21.308Z,14.00
2023-04-01T20:18:57.547Z,13.80
2023-04-01T20:22:37.191Z,15.00
2023-04-01T20:26:11.830Z,15.20
2023-04-01T20:30:06.979Z,9.20
2023-04-01T20:34:08.843Z,13.20
2023-04-01T20:37:43.723Z,10.30
2023-04-01T20:41:23.358Z,10.20
2023-04-01T20:45:00.926Z,11.40
2023-04-01T20:49:04.314Z,9.10
2023-04-01T20:52:40.938Z,8.00
2023-04-01T20:56:19.011Z,9.70
2023-04-01T21:00:01.700Z,10.90
2023-04-01T21:03:41.530Z,7.90
2023-04-01T21:07:31.754Z,10.70
2023-04-01T21:11:11.701Z,22.40
2023-04-01T21:14:59.952Z,9.30
2023-04-01T21:18:45.981Z,10.80
2023-04-01T21:22:40.906Z,23.10
2023-04-01T21:26:23.614Z,14.50
2023-04-01T21:30:02.154Z,20.00
2023-04-01T21:33:48.596Z,15.90
2023-04-01T21:37:46.476Z,15.50
2023-04-01T21:41:23.365Z,12.60
2023-04-01T21:45:07.163Z,12.40
2023-04-01T21:49:14.808Z,13.20
2023-04-01T21:53:27.416Z,13.00
2023-04-01T21:57:37.431Z,11.30
2023-04-01T22:01:25.163Z,14.30
2023-04-01T22:05:00.760Z,14.90
2023-04-01T22:08:46.506Z,14.90
2023-04-01T22:12:20.169Z,14.70
2023-04-01T22:16:12.188Z,12.10
2023-04-01T22:19:52.229Z,17.00
2023-04-01T22:23:28.829Z,12.50
2023-04-01T22:27:02.321Z,12.90
2023-04-01T22:30:35.760Z,15.20
2023-04-01T22:34:14.278Z,12.90
2023-04-01T22:37:55.657Z,7.20
2023-04-01T22:41:36.573Z,8.40
2023-04-01T22:45:23.305Z,9.10
2023-04-01T22:48:59.318Z,9.10
2023-04-01T22:52:35.888Z,7.10
2023-04-01T22:56:10.488Z,7.40
2023-04-01T22:59:48.773Z,7.10
2023-04-01T23:03:25.558Z,11.50
2023-04-01T23:06:58.755Z,8.10
2023-04-01T23:10:33.275Z,9.70
2023-04-01T23:14:19.653Z,9.50
2023-04-01T23:18:02.215Z,12.70
2023-04-01T23:21:38.594Z,9.70
2023-04-01T23:25:28.407Z,8.60
2023-04-01T23:29:00.900Z,10.40
2023-04-01T23:32:33.067Z,13.60
2023-04-01T23:36:09.303Z,8.20
2023-04-01T23:39:40.232Z,8.50
2023-04-01T23:43:27.576Z,8.10
2023-04-01T23:47:04.530Z,10.20
2023-04-01T23:50:44.620Z,9.60
2023-04-01T23:54:23.240Z,11.70
2023-04-01T23:58:12.775Z,10.60
